DME weather

Domodedovo International Airport
Moscow, Moscow Oblast, Russia

Public forecast

Using degrees Celsius for public forecast. Weather courtesy of forecast.io.

Current aviation weather report (METAR) for Domodedovo International Airport

Retrieved 2019/11/17 23:30 UTC (25 minutes ago):

UUDD 172330Z 22002MPS 9999 SCT043 04/02 Q1028 R14R/290042 NOSIG

Aviation forecast (TAF) for Domodedovo International Airport

Retrieved 2019/11/17 21:24 UTC (3 hours ago):

TAF UUDD 171957Z 1721/1903 21003MPS 6000 FEW005 BKN011 TX06/1812Z TN01/1818Z TEMPO 1800/1807 0300 FG BKN003 PROB40 TEMPO 1816/1903 0300 FG SCT002